createdAt,value
2022-12-08T00:01:27.147Z,0.38
2022-12-08T00:03:54.466Z,0.45
2022-12-08T00:07:00.299Z,0.49
2022-12-08T00:09:39.895Z,0.41
2022-12-08T00:12:21.060Z,0.40
2022-12-08T00:14:50.831Z,0.41
2022-12-08T00:17:19.868Z,0.49
2022-12-08T00:19:46.374Z,0.37
2022-12-08T00:22:14.774Z,0.44
2022-12-08T00:24:49.943Z,0.39
2022-12-08T00:27:18.496Z,0.44
2022-12-08T00:29:45.839Z,0.47
2022-12-08T00:32:13.107Z,0.53
2022-12-08T00:34:39.707Z,0.53
2022-12-08T00:37:06.218Z,0.49
2022-12-08T00:39:32.973Z,0.43
2022-12-08T00:42:14.649Z,0.34
2022-12-08T00:44:42.963Z,0.35
2022-12-08T00:47:10.159Z,0.31
2022-12-08T00:49:36.702Z,0.26
2022-12-08T00:52:03.412Z,0.16
2022-12-08T00:54:29.982Z,0.34
2022-12-08T00:56:56.477Z,0.24
2022-12-08T00:59:22.994Z,0.26
2022-12-08T01:01:51.897Z,0.37
2022-12-08T01:04:22.136Z,0.37
2022-12-08T01:06:51.853Z,0.32
2022-12-08T01:09:19.094Z,0.29
2022-12-08T01:11:46.063Z,0.31
2022-12-08T01:14:13.272Z,0.20
2022-12-08T01:16:41.529Z,0.22
2022-12-08T01:19:10.790Z,0.05
2022-12-08T01:21:37.438Z,0.14
2022-12-08T01:24:04.287Z,0.12
2022-12-08T01:26:30.847Z,0.03
2022-12-08T01:28:57.387Z,-0.08
2022-12-08T01:31:24.439Z,-0.02
2022-12-08T01:33:53.529Z,-0.12
2022-12-08T01:36:25.793Z,-0.07
2022-12-08T01:38:56.598Z,-0.11
2022-12-08T01:41:29.979Z,0.05
2022-12-08T01:44:13.588Z,-0.02
2022-12-08T01:46:42.136Z,-0.01
2022-12-08T01:49:26.261Z,-0.11
2022-12-08T01:52:00.269Z,-0.07
2022-12-08T01:54:32.286Z,-0.08
2022-12-08T01:57:00.847Z,-0.23
2022-12-08T01:59:30.516Z,-0.35
2022-12-08T02:01:57.988Z,-0.38
2022-12-08T02:04:27.541Z,-0.27
2022-12-08T02:06:58.115Z,-0.29
2022-12-08T02:09:27.491Z,-0.27
2022-12-08T02:11:57.714Z,-0.35
2022-12-08T02:14:28.598Z,-0.39
2022-12-08T02:17:22.325Z,-0.40
2022-12-08T02:20:21.203Z,-0.36
2022-12-08T02:23:22.732Z,-0.32
2022-12-08T02:26:11.075Z,-0.33
2022-12-08T02:29:02.332Z,-0.24
2022-12-08T02:32:06.699Z,-0.24
2022-12-08T02:34:57.261Z,-0.34
2022-12-08T02:37:32.717Z,-0.31
2022-12-08T02:40:13.918Z,-0.34
2022-12-08T02:42:47.602Z,-0.37
2022-12-08T02:45:24.086Z,-0.43
2022-12-08T02:47:52.062Z,-0.48
2022-12-08T02:50:18.942Z,-0.55
2022-12-08T02:52:48.307Z,-0.53
2022-12-08T02:55:27.711Z,-0.50
2022-12-08T02:58:37.972Z,-0.46
2022-12-08T03:01:12.103Z,-0.47
2022-12-08T03:03:46.101Z,-0.54
2022-12-08T03:06:12.559Z,-0.64
2022-12-08T03:08:56.343Z,-0.73
2022-12-08T03:11:41.905Z,-0.71
2022-12-08T03:14:14.264Z,-0.76
2022-12-08T03:16:43.297Z,-0.72
2022-12-08T03:19:19.877Z,-0.72
2022-12-08T03:21:53.627Z,-0.67
2022-12-08T03:24:23.169Z,-0.78
2022-12-08T03:26:59.854Z,-0.96
2022-12-08T03:29:26.778Z,-1.05
2022-12-08T03:32:04.584Z,-1.12
2022-12-08T03:34:31.685Z,-1.05
2022-12-08T03:37:01.387Z,-1.09
2022-12-08T03:39:34.850Z,-1.00
2022-12-08T03:42:01.354Z,-1.22
2022-12-08T03:44:29.611Z,-1.12
2022-12-08T03:46:56.138Z,-1.18
2022-12-08T03:49:22.711Z,-1.17
2022-12-08T03:51:49.474Z,-1.19
2022-12-08T03:54:16.040Z,-1.15
2022-12-08T03:56:42.621Z,-1.29
2022-12-08T03:59:10.553Z,-1.38
2022-12-08T04:01:37.182Z,-1.33
2022-12-08T04:04:03.720Z,-1.40
2022-12-08T04:06:34.744Z,-1.41
2022-12-08T04:09:04.462Z,-1.41
2022-12-08T04:11:34.026Z,-1.34
2022-12-08T04:14:03.655Z,-1.26
2022-12-08T04:16:33.806Z,-1.30
2022-12-08T04:19:03.570Z,-1.36
2022-12-08T04:21:32.493Z,-1.33
2022-12-08T04:24:01.339Z,-1.38
2022-12-08T04:26:28.743Z,-1.36
2022-12-08T04:28:55.512Z,-1.37
2022-12-08T04:31:22.106Z,-1.53
2022-12-08T04:33:48.743Z,-1.61
2022-12-08T04:36:15.269Z,-1.56
2022-12-08T04:38:41.803Z,-1.57
2022-12-08T04:41:08.661Z,-1.51
2022-12-08T04:43:35.880Z,-1.54
2022-12-08T04:46:08.998Z,-1.56
2022-12-08T04:48:37.812Z,-1.60
2022-12-08T04:51:04.692Z,-1.55
2022-12-08T04:53:36.397Z,-1.46
2022-12-08T04:56:11.712Z,-1.37
2022-12-08T04:58:38.198Z,-1.35
2022-12-08T05:01:07.280Z,-1.40
2022-12-08T05:03:36.954Z,-1.34
2022-12-08T05:06:07.302Z,-1.36
2022-12-08T05:08:36.911Z,-1.35
2022-12-08T05:11:09.172Z,-1.32
2022-12-08T05:13:35.723Z,-1.39
2022-12-08T05:16:07.497Z,-1.37
2022-12-08T05:18:38.397Z,-1.38
2022-12-08T05:21:06.359Z,-1.43
2022-12-08T05:23:36.735Z,-1.41
2022-12-08T05:26:06.002Z,-1.46
2022-12-08T05:28:42.246Z,-1.58
2022-12-08T05:31:09.997Z,-1.60
2022-12-08T05:33:36.747Z,-1.64
2022-12-08T05:36:04.717Z,-1.54
2022-12-08T05:38:31.973Z,-1.48
2022-12-08T05:40:58.647Z,-1.48
2022-12-08T05:43:25.148Z,-1.38
2022-12-08T05:45:51.757Z,-1.40
2022-12-08T05:48:18.382Z,-1.39
2022-12-08T05:50:48.717Z,-1.32
2022-12-08T05:53:16.707Z,-1.23
2022-12-08T05:55:43.435Z,-1.22
2022-12-08T05:58:14.780Z,-1.52
2022-12-08T06:00:42.403Z,-1.85
2022-12-08T06:03:11.613Z,-1.93
2022-12-08T06:05:43.019Z,-1.98
2022-12-08T06:08:10.039Z,-2.03
2022-12-08T06:10:39.720Z,-2.11
2022-12-08T06:13:08.726Z,-1.95
2022-12-08T06:15:38.738Z,-2.18
2022-12-08T06:18:09.563Z,-2.25
2022-12-08T06:20:38.836Z,-2.05
2022-12-08T06:23:05.388Z,-2.02
2022-12-08T06:25:31.942Z,-1.91
2022-12-08T06:27:58.492Z,-2.02
2022-12-08T06:30:25.039Z,-2.10
2022-12-08T06:32:51.555Z,-2.19
2022-12-08T06:35:18.164Z,-2.26
2022-12-08T06:37:44.695Z,-2.28
2022-12-08T06:40:11.635Z,-2.24
2022-12-08T06:42:44.024Z,-2.10
2022-12-08T06:45:12.873Z,-2.04
2022-12-08T06:47:42.727Z,-2.04
2022-12-08T06:50:11.135Z,-2.10
2022-12-08T06:52:47.284Z,-2.20
2022-12-08T06:55:35.409Z,-2.02
2022-12-08T06:58:02.638Z,-2.10
2022-12-08T07:00:29.334Z,-2.10
2022-12-08T07:02:55.949Z,-2.17
2022-12-08T07:05:22.511Z,-2.26
2022-12-08T07:07:49.141Z,-2.31
2022-12-08T07:10:15.717Z,-2.41
2022-12-08T07:12:42.243Z,-2.42
2022-12-08T07:15:10.681Z,-2.43
2022-12-08T07:17:37.253Z,-2.39
2022-12-08T07:20:04.313Z,-2.32
2022-12-08T07:22:30.994Z,-2.41
2022-12-08T07:24:57.481Z,-2.32
2022-12-08T07:27:23.976Z,-2.34
2022-12-08T07:29:50.514Z,-2.36
2022-12-08T07:32:16.990Z,-2.31
2022-12-08T07:34:43.514Z,-2.27
2022-12-08T07:37:12.527Z,-2.11
2022-12-08T07:39:39.015Z,-2.05
2022-12-08T07:42:05.564Z,-1.34
2022-12-08T07:44:32.080Z,-0.05
2022-12-08T07:46:58.603Z,1.19
2022-12-08T07:49:25.160Z,2.23
2022-12-08T07:51:51.683Z,3.08
2022-12-08T07:54:18.174Z,3.79
2022-12-08T07:56:44.663Z,4.32
2022-12-08T07:59:15.363Z,4.74
2022-12-08T08:01:45.515Z,5.00
2022-12-08T08:04:13.494Z,5.07
2022-12-08T08:06:40.143Z,5.13
2022-12-08T08:09:06.787Z,5.33
2022-12-08T08:11:33.381Z,5.42
2022-12-08T08:13:59.880Z,5.54
2022-12-08T08:16:26.571Z,5.54
2022-12-08T08:18:53.589Z,5.52
2022-12-08T08:24:07.854Z,5.22
2022-12-08T08:26:34.613Z,5.02
2022-12-08T08:29:01.107Z,4.89
2022-12-08T08:31:27.725Z,4.70
2022-12-08T08:33:55.648Z,4.49
2022-12-08T08:36:22.635Z,4.49
2022-12-08T08:38:49.239Z,4.63
2022-12-08T08:41:18.785Z,4.91
2022-12-08T08:43:48.296Z,5.07
2022-12-08T08:46:16.954Z,5.09
2022-12-08T08:48:43.527Z,5.07
2022-12-08T08:51:32.302Z,5.03
2022-12-08T08:53:59.088Z,5.21
2022-12-08T08:56:25.984Z,5.22
2022-12-08T08:58:53.244Z,5.19
2022-12-08T09:01:27.078Z,5.18
2022-12-08T09:03:54.929Z,5.24
2022-12-08T09:06:22.171Z,5.33
2022-12-08T09:08:49.067Z,5.40
2022-12-08T09:11:18.986Z,5.44
2022-12-08T09:13:49.815Z,5.45
2022-12-08T09:16:20.196Z,5.46
2022-12-08T09:18:49.318Z,5.51
2022-12-08T09:21:22.684Z,5.62
2022-12-08T09:23:58.771Z,5.87
2022-12-08T09:26:27.579Z,5.93
2022-12-08T09:28:56.133Z,6.13
2022-12-08T09:31:23.949Z,6.25
2022-12-08T09:33:53.704Z,6.45
2022-12-08T09:36:20.636Z,6.62
2022-12-08T09:38:47.876Z,6.84
2022-12-08T09:41:20.549Z,6.92
2022-12-08T09:44:00.374Z,6.92
2022-12-08T09:46:30.541Z,7.05
2022-12-08T09:48:59.163Z,7.08
2022-12-08T09:51:30.722Z,7.20
2022-12-08T09:54:02.457Z,7.24
2022-12-08T09:56:33.791Z,7.35
2022-12-08T09:59:03.941Z,7.47
2022-12-08T10:01:41.937Z,7.70
2022-12-08T10:04:32.469Z,7.66
2022-12-08T10:07:21.076Z,7.70
2022-12-08T10:10:22.411Z,7.65
2022-12-08T10:13:07.208Z,7.83
2022-12-08T10:15:33.691Z,7.85
2022-12-08T10:18:18.652Z,7.71
2022-12-08T10:20:50.987Z,7.97
2022-12-08T10:23:39.628Z,8.07
2022-12-08T10:26:11.998Z,8.48
2022-12-08T10:28:44.523Z,8.77
2022-12-08T10:31:20.791Z,9.13
2022-12-08T10:33:52.901Z,9.20
2022-12-08T10:36:19.749Z,9.00
2022-12-08T10:38:47.252Z,9.02
2022-12-08T10:41:18.406Z,9.17
2022-12-08T10:43:49.681Z,8.91
2022-12-08T10:46:21.825Z,9.24
2022-12-08T10:48:52.934Z,9.10
2022-12-08T10:51:33.574Z,9.21
2022-12-08T10:54:00.518Z,8.86
2022-12-08T10:56:30.116Z,8.62
2022-12-08T10:59:05.926Z,8.72
2022-12-08T11:01:39.464Z,8.40
2022-12-08T11:04:17.753Z,8.13
2022-12-08T11:06:45.197Z,8.13
2022-12-08T11:09:20.876Z,8.11
2022-12-08T11:12:23.022Z,8.20
2022-12-08T11:15:01.575Z,8.31
2022-12-08T11:17:35.605Z,8.29
2022-12-08T11:20:11.281Z,8.32
2022-12-08T11:22:42.901Z,8.19
2022-12-08T11:25:27.689Z,8.14
2022-12-08T11:27:58.048Z,8.23
2022-12-08T11:30:48.770Z,8.49
2022-12-08T11:33:22.508Z,8.70
2022-12-08T11:36:09.023Z,8.80
2022-12-08T11:38:41.873Z,8.68
2022-12-08T11:41:16.399Z,8.27
2022-12-08T11:44:06.130Z,8.32
2022-12-08T11:46:40.891Z,8.89
2022-12-08T11:49:13.551Z,8.99
2022-12-08T11:51:43.993Z,9.04
2022-12-08T11:54:26.131Z,9.22
2022-12-08T11:57:02.017Z,9.27
2022-12-08T11:59:41.923Z,9.03
2022-12-08T12:02:17.795Z,9.24
2022-12-08T12:04:52.213Z,9.38
2022-12-08T12:07:33.245Z,9.32
2022-12-08T12:10:20.680Z,9.50
2022-12-08T12:12:49.882Z,9.78
2022-12-08T12:15:32.505Z,9.76
2022-12-08T12:18:20.562Z,9.98
2022-12-08T12:20:57.446Z,9.85
2022-12-08T12:23:39.073Z,9.84
2022-12-08T12:26:07.761Z,10.17
2022-12-08T12:28:53.173Z,10.12
2022-12-08T12:31:25.702Z,10.04
2022-12-08T12:33:57.145Z,10.23
2022-12-08T12:36:25.585Z,10.24
2022-12-08T12:39:08.649Z,10.23
2022-12-08T12:41:56.588Z,10.39
2022-12-08T12:44:28.965Z,10.14
2022-12-08T12:46:58.804Z,10.04
2022-12-08T12:49:40.677Z,10.06
2022-12-08T12:52:10.156Z,10.35
2022-12-08T12:54:36.701Z,10.28
2022-12-08T12:57:09.380Z,10.29
2022-12-08T12:59:35.834Z,10.31
2022-12-08T13:02:03.085Z,10.39
2022-12-08T13:04:35.129Z,10.30
2022-12-08T13:07:02.171Z,10.27
2022-12-08T13:09:39.858Z,10.48
2022-12-08T13:12:23.457Z,10.45
2022-12-08T13:14:51.694Z,10.60
2022-12-08T13:17:28.340Z,10.52
2022-12-08T13:19:58.451Z,10.51
2022-12-08T13:22:54.213Z,10.49
2022-12-08T13:25:38.960Z,10.44
2022-12-08T13:28:20.928Z,10.09
2022-12-08T13:30:50.279Z,9.88
2022-12-08T13:33:41.178Z,9.67
2022-12-08T13:36:13.452Z,9.20
2022-12-08T13:38:43.993Z,8.93
2022-12-08T13:41:19.092Z,8.96
2022-12-08T13:45:17.910Z,8.92
2022-12-08T13:47:31.521Z,9.09
2022-12-08T13:50:55.709Z,8.84
2022-12-08T13:58:37.356Z,8.65
2022-12-08T14:01:21.720Z,8.50
2022-12-08T14:04:31.040Z,8.24
2022-12-08T14:06:46.707Z,7.90
2022-12-08T14:09:19.192Z,7.67
2022-12-08T14:11:59.067Z,7.30
2022-12-08T14:17:31.376Z,7.15
2022-12-08T14:20:06.574Z,6.97
2022-12-08T14:22:38.708Z,6.81
2022-12-08T14:25:07.910Z,6.73
2022-12-08T14:27:37.130Z,6.59
2022-12-08T14:30:06.201Z,6.36
2022-12-08T14:33:11.341Z,6.14
2022-12-08T14:35:39.633Z,5.82
2022-12-08T14:38:14.171Z,5.61
2022-12-08T14:40:44.144Z,5.51
2022-12-08T14:43:12.336Z,5.29
2022-12-08T14:45:45.128Z,5.30
2022-12-08T14:48:44.761Z,5.21
2022-12-08T14:51:21.448Z,5.00
2022-12-08T14:53:56.074Z,5.08
2022-12-08T14:56:26.902Z,4.98
2022-12-08T14:59:14.354Z,4.88
2022-12-08T15:01:43.116Z,4.79
2022-12-08T15:04:12.838Z,4.79
2022-12-08T15:06:56.414Z,4.81
2022-12-08T15:09:35.172Z,4.81
2022-12-08T15:12:27.401Z,4.78
2022-12-08T15:14:58.595Z,4.77
2022-12-08T15:17:40.233Z,4.67
2022-12-08T15:20:31.700Z,4.69
2022-12-08T15:23:02.145Z,4.59
2022-12-08T15:25:28.807Z,4.56
2022-12-08T15:27:57.882Z,4.58
2022-12-08T15:30:28.652Z,4.58
2022-12-08T15:32:56.177Z,4.53
2022-12-08T15:35:22.888Z,4.53
2022-12-08T15:37:52.622Z,4.30
2022-12-08T15:40:21.700Z,4.47
2022-12-08T15:42:51.179Z,4.40
2022-12-08T15:45:17.938Z,4.40
2022-12-08T15:47:45.749Z,4.36
2022-12-08T15:50:21.500Z,4.38
2022-12-08T15:52:51.435Z,4.21
2022-12-08T15:55:21.392Z,4.19
2022-12-08T16:00:55.129Z,4.23
2022-12-08T16:04:13.770Z,4.22
2022-12-08T16:07:21.217Z,4.12
2022-12-08T16:09:14.176Z,4.08
2022-12-08T16:12:09.073Z,3.98
2022-12-08T16:17:24.266Z,4.01
2022-12-08T16:19:51.259Z,3.92
2022-12-08T16:25:20.273Z,3.75
2022-12-08T16:30:36.688Z,3.66
2022-12-08T16:33:03.645Z,3.65
2022-12-08T16:35:30.746Z,3.57
2022-12-08T16:37:57.638Z,3.53
2022-12-08T16:40:24.449Z,3.53
2022-12-08T16:42:52.392Z,3.39
2022-12-08T16:45:28.011Z,3.40
2022-12-08T16:48:00.050Z,3.33
2022-12-08T16:50:32.315Z,3.20
2022-12-08T16:53:07.326Z,3.20
2022-12-08T16:55:34.786Z,3.17
2022-12-08T16:58:02.662Z,3.21
2022-12-08T17:00:30.773Z,3.18
2022-12-08T17:02:58.928Z,3.16
2022-12-08T17:05:26.665Z,3.18
2022-12-08T17:07:54.179Z,3.19
2022-12-08T17:10:32.075Z,3.14
2022-12-08T17:12:58.606Z,3.21
2022-12-08T17:15:26.092Z,3.09
2022-12-08T17:17:53.690Z,3.11
2022-12-08T17:20:29.367Z,3.02
2022-12-08T17:22:58.211Z,2.95
2022-12-08T17:25:27.746Z,2.93
2022-12-08T17:27:57.400Z,2.92
2022-12-08T17:30:26.012Z,2.95
2022-12-08T17:32:52.938Z,2.85
2022-12-08T17:35:19.794Z,2.78
2022-12-08T17:37:46.361Z,2.81
2022-12-08T17:40:13.010Z,2.82
2022-12-08T17:42:39.661Z,2.78
2022-12-08T17:45:07.647Z,2.86
2022-12-08T17:47:34.795Z,2.80
2022-12-08T17:50:01.347Z,2.70
2022-12-08T17:52:28.564Z,2.65
2022-12-08T17:54:57.717Z,2.72
2022-12-08T17:57:28.464Z,2.71
2022-12-08T17:59:57.768Z,2.70
2022-12-08T18:02:30.423Z,2.65
2022-12-08T18:04:56.942Z,2.67
2022-12-08T18:07:25.311Z,2.72
2022-12-08T18:09:52.361Z,2.66
2022-12-08T18:12:23.874Z,2.66
2022-12-08T18:14:51.744Z,2.50
2022-12-08T18:17:18.414Z,2.60
2022-12-08T18:19:45.028Z,2.50
2022-12-08T18:22:12.313Z,2.52
2022-12-08T18:24:38.879Z,2.50
2022-12-08T18:27:05.446Z,2.36
2022-12-08T18:29:32.429Z,2.39
2022-12-08T18:31:59.030Z,2.42
2022-12-08T18:34:28.360Z,2.40
2022-12-08T18:36:58.388Z,2.30
2022-12-08T18:39:30.028Z,2.26
2022-12-08T18:42:02.626Z,2.29
2022-12-08T18:44:29.277Z,2.22
2022-12-08T18:46:58.614Z,2.12
2022-12-08T18:49:26.710Z,2.22
2022-12-08T18:51:55.573Z,2.20
2022-12-08T18:54:37.212Z,2.23
2022-12-08T18:57:09.351Z,2.21
2022-12-08T18:59:37.930Z,2.15
2022-12-08T19:02:04.533Z,2.11
2022-12-08T19:04:33.655Z,2.09
2022-12-08T19:07:03.976Z,2.11
2022-12-08T19:09:30.529Z,2.13
2022-12-08T19:11:57.539Z,2.09
2022-12-08T19:14:28.156Z,2.25
2022-12-08T19:16:58.495Z,2.10
2022-12-08T19:19:31.490Z,2.08
2022-12-08T19:21:58.261Z,2.06
2022-12-08T19:24:27.373Z,2.05
2022-12-08T19:26:54.007Z,2.06
2022-12-08T19:29:24.157Z,2.08
2022-12-08T19:31:52.431Z,2.05
2022-12-08T19:34:19.450Z,1.97
2022-12-08T19:36:46.139Z,2.01
2022-12-08T19:39:39.809Z,1.93
2022-12-08T19:42:32.197Z,1.81
2022-12-08T19:45:08.310Z,1.95
2022-12-08T19:47:34.902Z,1.82
2022-12-08T19:50:20.376Z,1.86
2022-12-08T19:52:46.864Z,1.85
2022-12-08T19:55:13.623Z,1.88
2022-12-08T19:57:40.460Z,1.85
2022-12-08T20:00:10.112Z,1.83
2022-12-08T20:02:37.438Z,1.77
2022-12-08T20:05:05.305Z,1.74
2022-12-08T20:07:31.908Z,1.70
2022-12-08T20:10:04.233Z,1.70
2022-12-08T20:12:31.234Z,1.70
2022-12-08T20:15:00.394Z,1.65
2022-12-08T20:17:30.252Z,1.76
2022-12-08T20:20:05.305Z,1.68
2022-12-08T20:22:33.626Z,1.69
2022-12-08T20:25:01.102Z,1.58
2022-12-08T20:27:30.570Z,1.61
2022-12-08T20:30:00.011Z,1.63
2022-12-08T20:32:30.502Z,1.81
2022-12-08T20:34:59.203Z,1.68
2022-12-08T20:37:29.583Z,1.77
2022-12-08T20:39:57.508Z,1.76
2022-12-08T20:42:24.195Z,1.69
2022-12-08T20:44:50.857Z,1.86
2022-12-08T20:47:17.473Z,1.85
2022-12-08T20:49:44.253Z,1.86
2022-12-08T20:52:10.809Z,1.92
2022-12-08T20:54:37.682Z,1.97
2022-12-08T20:57:05.227Z,1.97
2022-12-08T20:59:32.138Z,2.01
2022-12-08T21:02:02.189Z,1.96
2022-12-08T21:04:31.596Z,2.08
2022-12-08T21:07:00.953Z,1.97
2022-12-08T21:09:30.792Z,1.98
2022-12-08T21:12:00.836Z,1.91
2022-12-08T21:14:30.345Z,1.97
2022-12-08T21:16:59.610Z,1.94
2022-12-08T21:19:28.965Z,1.79
2022-12-08T21:21:55.511Z,1.82
2022-12-08T21:24:22.230Z,1.69
2022-12-08T21:26:48.933Z,1.72
2022-12-08T21:29:16.981Z,1.61
2022-12-08T21:31:43.775Z,1.61
2022-12-08T21:34:11.237Z,1.65
2022-12-08T21:36:37.939Z,1.60
2022-12-08T21:39:10.951Z,1.57
2022-12-08T21:41:55.983Z,1.50
2022-12-08T21:44:23.561Z,1.64
2022-12-08T21:46:50.381Z,1.59
2022-12-08T21:49:17.041Z,1.68
2022-12-08T21:51:43.913Z,1.68
2022-12-08T21:54:18.609Z,1.71
2022-12-08T21:56:46.926Z,1.56
2022-12-08T21:59:13.810Z,1.65
2022-12-08T22:01:43.313Z,1.66
2022-12-08T22:04:12.581Z,1.63
2022-12-08T22:06:39.566Z,1.55
2022-12-08T22:09:07.418Z,1.49
2022-12-08T22:11:34.080Z,1.52
2022-12-08T22:14:03.682Z,1.54
2022-12-08T22:16:33.604Z,1.54
2022-12-08T22:19:03.796Z,1.40
2022-12-08T22:21:31.648Z,1.43
2022-12-08T22:23:58.444Z,1.21
2022-12-08T22:26:25.024Z,1.11
2022-12-08T22:28:51.975Z,1.14
2022-12-08T22:31:21.034Z,1.13
2022-12-08T22:33:48.881Z,0.97
2022-12-08T22:36:21.764Z,0.99
2022-12-08T22:38:48.955Z,0.97
2022-12-08T22:41:16.740Z,1.04
2022-12-08T22:43:43.865Z,1.02
2022-12-08T22:46:14.419Z,1.06
2022-12-08T22:48:41.289Z,1.02
2022-12-08T22:51:08.674Z,1.11
2022-12-08T22:53:35.334Z,1.04
2022-12-08T22:56:09.770Z,0.97
2022-12-08T22:58:37.064Z,0.88
2022-12-08T23:01:04.840Z,0.83
2022-12-08T23:03:37.632Z,0.90
2022-12-08T23:06:12.973Z,0.80
2022-12-08T23:08:39.920Z,0.85
2022-12-08T23:11:06.620Z,0.88
2022-12-08T23:13:37.815Z,0.90
2022-12-08T23:16:08.428Z,0.75
2022-12-08T23:18:35.732Z,0.81
2022-12-08T23:21:11.198Z,0.90
2022-12-08T23:23:38.088Z,0.75
2022-12-08T23:26:12.623Z,0.71
2022-12-08T23:28:39.306Z,0.82
2022-12-08T23:31:09.343Z,0.80
2022-12-08T23:33:36.273Z,0.77
2022-12-08T23:36:06.957Z,0.78
2022-12-08T23:38:36.804Z,1.05
2022-12-08T23:41:05.956Z,0.95
2022-12-08T23:43:35.888Z,0.90
2022-12-08T23:46:04.394Z,0.83
2022-12-08T23:48:36.667Z,0.80
2022-12-08T23:51:03.373Z,0.81
2022-12-08T23:53:31.933Z,0.86
2022-12-08T23:56:17.901Z,0.98
2022-12-08T23:58:45.538Z,1.06
